KPAM/PAM METAR and TAF weather

Enter ICAO airport designator
Station Type Date Time Source
KPAM METAR 2019/06/19 06:56 UTC NOAA

KPAM 190656Z AUTO 20012KT 10SM CLR 27/24 A2992 RMK AO2 SLP135 T02700236 $


Station Type Date Time Source
KPAM Decoded METAR 2019/06/19 06:56 UTC NOAA

Tyndall Air Force Base, FL, United States (KPAM) 30-04N 085-35W 13M
Jun 19, 2019 - 02:56 AM EDT / 2019.06.19 0656 UTC
Wind: from the SSW (200 degrees) at 14 MPH (12 KT):0
Visibility: 10 mile(s):0
Sky conditions: clear
Temperature: 80.6 F (27.0 C)
Dew Point: 74.5 F (23.6 C)
Relative Humidity: 81%
Pressure (altimeter): 29.92 in. Hg (1013 hPa)
ob: KPAM 190656Z AUTO 20012KT 10SM CLR 27/24 A2992 RMK AO2 SLP135 T02700236
cycle: 7

Station Type Date Time Source
KPAM TAF 2019/06/18 22:12 UTC NOAA

TAF
AMD KPAM 182200Z 1822/1924 21010G15KT 9000 -SHRA SCT020 BKN250 QNH2994INS
TEMPO 1822/1900 23015G25KT 8000 -TSRA BKN020CB
BECMG 1901/1902 22009KT 9999 NSW SCT020 BKN250 QNH2995INS
BECMG 1909/1910 24010G15KT 8000 -SHRA VCTS BKN020CB BKN250 QNH2991INS
BECMG 1911/1912 25015G25KT 4800 TSRA BKN020CB BKN250 QNH2988INS
BECMG 1918/1919 25015G20KT 9999 NSW SCT025 SCT250 QNH2988INS TX31/1822Z TN24/1908Z LAST NO
AMDS AFT 1822 NEXT 1910

Example: see airport list